createdAt,value
2024-04-10T00:01:42.480Z,13.08
2024-04-10T00:04:09.153Z,13.20
2024-04-10T00:06:35.757Z,13.08
2024-04-10T00:09:02.288Z,12.72
2024-04-10T00:11:28.952Z,12.97
2024-04-10T00:13:55.572Z,13.31
2024-04-10T00:16:24.706Z,12.87
2024-04-10T00:18:51.470Z,13.48
2024-04-10T00:21:18.265Z,13.12
2024-04-10T00:23:44.767Z,12.87
2024-04-10T00:26:11.309Z,12.68
2024-04-10T00:28:38.005Z,13.15
2024-04-10T00:31:05.882Z,13.53
2024-04-10T00:33:35.273Z,13.37
2024-04-10T00:36:03.129Z,13.63
2024-04-10T00:38:30.783Z,13.25
2024-04-10T00:40:58.432Z,13.05
2024-04-10T00:43:25.612Z,13.63
2024-04-10T00:45:56.377Z,13.23
2024-04-10T00:48:23.027Z,13.01
2024-04-10T00:50:52.954Z,13.07
2024-04-10T00:53:20.169Z,13.41
2024-04-10T00:55:47.638Z,13.29
2024-04-10T00:58:15.057Z,13.48
2024-04-10T01:00:41.954Z,13.13
2024-04-10T01:03:08.540Z,13.14
2024-04-10T01:05:35.402Z,12.86
2024-04-10T01:08:05.497Z,12.73
2024-04-10T01:10:32.555Z,12.75
2024-04-10T01:12:59.919Z,13.10
2024-04-10T01:15:28.437Z,13.40
2024-04-10T01:17:55.040Z,12.86
2024-04-10T01:20:21.773Z,13.02
2024-04-10T01:22:50.970Z,12.67
2024-04-10T01:25:20.105Z,13.14
2024-04-10T01:27:46.645Z,12.90
2024-04-10T01:30:13.184Z,13.13
2024-04-10T01:32:39.862Z,13.56
2024-04-10T01:35:06.925Z,12.64
2024-04-10T01:37:33.643Z,12.72
2024-04-10T01:40:00.217Z,12.75
2024-04-10T01:42:29.370Z,13.04
2024-04-10T01:44:55.990Z,12.69
2024-04-10T01:47:22.704Z,12.83
2024-04-10T01:49:50.839Z,12.56
2024-04-10T01:52:17.549Z,12.75
2024-04-10T01:54:45.675Z,13.02
2024-04-10T01:57:12.259Z,12.68
2024-04-10T01:59:41.384Z,13.14
2024-04-10T02:02:07.986Z,12.76
2024-04-10T02:04:34.745Z,12.83
2024-04-10T02:07:01.697Z,12.98
2024-04-10T02:09:29.245Z,12.48
2024-04-10T02:11:55.980Z,12.93
2024-04-10T02:14:22.877Z,13.56
2024-04-10T02:16:52.319Z,12.74
2024-04-10T02:19:19.013Z,12.53
2024-04-10T02:21:45.659Z,13.12
2024-04-10T02:24:12.713Z,13.34
2024-04-10T02:26:39.331Z,12.87
2024-04-10T02:29:06.076Z,13.41
2024-04-10T02:31:32.637Z,13.10
2024-04-10T02:34:01.927Z,13.44
2024-04-10T02:36:28.723Z,12.91
2024-04-10T02:38:55.300Z,12.61
2024-04-10T02:41:21.888Z,12.77
2024-04-10T02:43:48.611Z,12.52
2024-04-10T02:46:15.346Z,12.51
2024-04-10T02:48:41.960Z,12.11
2024-04-10T02:51:11.188Z,12.55
2024-04-10T02:53:37.795Z,12.66
2024-04-10T02:56:04.869Z,12.47
2024-04-10T02:58:31.594Z,12.65
2024-04-10T03:00:58.524Z,12.54
2024-04-10T03:03:26.407Z,12.29
2024-04-10T03:06:00.810Z,12.98
2024-04-10T03:08:30.160Z,12.80
2024-04-10T03:10:56.770Z,12.78
2024-04-10T03:13:23.656Z,12.72
2024-04-10T03:15:50.367Z,12.47
2024-04-10T03:18:17.431Z,12.98
2024-04-10T03:20:44.306Z,13.19
2024-04-10T03:23:11.053Z,13.12
2024-04-10T03:25:40.337Z,13.37
2024-04-10T03:28:07.123Z,12.95
2024-04-10T03:30:33.812Z,12.48
2024-04-10T03:33:00.517Z,12.53
2024-04-10T03:35:29.251Z,12.17
2024-04-10T03:37:55.894Z,12.73
2024-04-10T03:40:23.507Z,12.42
2024-04-10T03:42:52.612Z,12.34
2024-04-10T03:45:20.248Z,12.95
2024-04-10T03:47:47.130Z,12.91
2024-04-10T03:50:15.565Z,13.06
2024-04-10T03:52:43.428Z,12.48
2024-04-10T03:55:10.002Z,12.73
2024-04-10T03:57:36.513Z,13.03
2024-04-10T04:00:07.235Z,12.29
2024-04-10T04:02:33.785Z,12.13
2024-04-10T04:05:00.481Z,12.39
2024-04-10T04:07:27.065Z,12.78
2024-04-10T04:09:53.585Z,12.86
2024-04-10T04:12:22.354Z,12.57
2024-04-10T04:14:49.925Z,11.97
2024-04-10T04:17:19.258Z,12.32
2024-04-10T04:19:45.890Z,12.24
2024-04-10T04:22:12.464Z,11.64
2024-04-10T04:24:39.036Z,12.53
2024-04-10T04:27:06.002Z,12.31
2024-04-10T04:29:33.201Z,12.35
2024-04-10T04:31:59.856Z,12.28
2024-04-10T04:34:29.031Z,12.29
2024-04-10T04:36:55.602Z,12.02
2024-04-10T04:39:22.173Z,12.01
2024-04-10T04:41:48.771Z,11.92
2024-04-10T04:44:15.435Z,12.05
2024-04-10T04:46:42.135Z,12.18
2024-04-10T04:49:08.689Z,12.29
2024-04-10T04:51:37.849Z,12.24
2024-04-10T04:54:04.421Z,11.85
2024-04-10T04:56:31.034Z,12.13
2024-04-10T04:58:57.615Z,12.38
2024-04-10T05:01:24.276Z,12.23
2024-04-10T05:03:51.000Z,12.55
2024-04-10T05:06:18.872Z,12.23
2024-04-10T05:08:49.073Z,12.66
2024-04-10T05:11:15.651Z,12.82
2024-04-10T05:13:42.387Z,12.78
2024-04-10T05:16:09.416Z,12.66
2024-04-10T05:18:36.061Z,12.30
2024-04-10T05:21:02.661Z,12.71
2024-04-10T05:23:29.354Z,13.08
2024-04-10T05:26:04.083Z,12.05
2024-04-10T05:28:30.958Z,12.55
2024-04-10T05:31:01.857Z,12.50
2024-04-10T05:33:28.509Z,12.65
2024-04-10T05:35:59.027Z,12.75
2024-04-10T05:38:25.947Z,12.84
2024-04-10T05:40:52.543Z,12.50
2024-04-10T05:43:21.646Z,12.59
2024-04-10T05:45:52.740Z,13.03
2024-04-10T05:48:19.460Z,13.09
2024-04-10T05:50:46.229Z,13.43
2024-04-10T05:53:12.983Z,12.46
2024-04-10T05:55:39.593Z,13.21
2024-04-10T05:58:06.167Z,12.91
2024-04-10T06:00:35.880Z,12.78
2024-04-10T06:03:02.644Z,12.29
2024-04-10T06:05:29.270Z,13.71
2024-04-10T06:07:55.926Z,12.88
2024-04-10T06:10:22.461Z,13.44
2024-04-10T06:12:49.755Z,13.63
2024-04-10T06:15:16.680Z,13.51
2024-04-10T06:17:45.944Z,13.83
2024-04-10T06:21:30.136Z,13.18
2024-04-10T06:23:56.690Z,12.93
2024-04-10T06:26:23.937Z,12.81
2024-04-10T06:28:50.586Z,12.73
2024-04-10T06:31:17.170Z,13.00
2024-04-10T06:33:43.831Z,13.20
2024-04-10T06:36:10.461Z,13.81
2024-04-10T06:38:39.593Z,13.88
2024-04-10T06:41:06.430Z,13.73
2024-04-10T06:43:33.153Z,13.24
2024-04-10T06:46:00.874Z,13.21
2024-04-10T06:48:28.066Z,13.14
2024-04-10T06:50:57.283Z,13.31
2024-04-10T06:53:24.044Z,13.16
2024-04-10T06:55:57.611Z,12.35
2024-04-10T06:58:25.517Z,12.68
2024-04-10T07:00:56.385Z,13.01
2024-04-10T07:03:23.135Z,13.66
2024-04-10T07:05:49.760Z,13.43
2024-04-10T07:08:16.614Z,13.78
2024-04-10T07:10:43.257Z,13.41
2024-04-10T07:13:14.969Z,12.79
2024-04-10T07:15:41.686Z,13.18
2024-04-10T07:18:08.565Z,12.63
2024-04-10T07:20:35.393Z,12.67
2024-04-10T07:23:06.047Z,12.95
2024-04-10T07:25:32.757Z,13.45
2024-04-10T07:27:59.331Z,14.27
2024-04-10T07:30:30.747Z,13.44
2024-04-10T07:32:58.061Z,13.60
2024-04-10T07:35:29.345Z,12.82
2024-04-10T07:37:55.958Z,13.25
2024-04-10T07:40:22.581Z,13.10
2024-04-10T07:42:50.452Z,13.97
2024-04-10T07:45:17.025Z,13.55
2024-04-10T07:47:50.460Z,13.05
2024-04-10T07:50:17.580Z,13.74
2024-04-10T07:52:44.145Z,14.24
2024-04-10T07:55:15.953Z,14.60
2024-04-10T07:57:46.492Z,13.35
2024-04-10T08:00:14.592Z,13.15
2024-04-10T08:02:41.249Z,13.45
2024-04-10T08:05:13.596Z,12.95
2024-04-10T08:07:40.250Z,13.03
2024-04-10T08:10:07.528Z,13.36
2024-04-10T08:12:34.047Z,13.06
2024-04-10T08:15:03.297Z,13.74
2024-04-10T08:17:33.114Z,13.03
2024-04-10T08:19:59.750Z,13.19
2024-04-10T08:22:31.947Z,13.27
2024-04-10T08:24:58.733Z,13.98
2024-04-10T08:27:25.261Z,13.32
2024-04-10T08:29:51.883Z,14.02
2024-04-10T08:32:18.493Z,13.63
2024-04-10T08:34:45.231Z,14.56
2024-04-10T08:37:11.871Z,14.52
2024-04-10T08:39:40.998Z,14.32
2024-04-10T08:42:08.095Z,14.50
2024-04-10T08:44:37.570Z,16.05
2024-04-10T08:47:05.774Z,15.91
2024-04-10T08:49:33.104Z,15.85
2024-04-10T08:52:00.338Z,15.33
2024-04-10T08:54:29.581Z,16.40
2024-04-10T08:56:59.026Z,19.52
2024-04-10T08:59:25.711Z,18.46
2024-04-10T09:01:52.334Z,15.22
2024-04-10T09:04:19.416Z,14.29
2024-04-10T09:06:46.329Z,17.37
2024-04-10T09:09:23.168Z,17.88
2024-04-10T09:11:52.008Z,18.90
2024-04-10T09:14:21.410Z,16.43
2024-04-10T09:16:48.264Z,16.02
2024-04-10T09:19:16.195Z,16.52
2024-04-10T09:21:44.332Z,18.74
2024-04-10T09:24:11.726Z,20.45
2024-04-10T09:26:44.272Z,19.75
2024-04-10T09:29:16.878Z,20.15
2024-04-10T09:31:48.628Z,20.14
2024-04-10T09:34:19.270Z,16.27
2024-04-10T09:36:47.115Z,16.58
2024-04-10T09:39:14.269Z,17.06
2024-04-10T09:41:44.444Z,18.33
2024-04-10T09:44:12.235Z,18.46
2024-04-10T09:46:39.399Z,16.50
2024-04-10T09:49:11.915Z,16.61
2024-04-10T09:51:39.329Z,17.25
2024-04-10T09:54:07.741Z,17.09
2024-04-10T09:56:35.729Z,16.14
2024-04-10T09:59:02.992Z,16.75
2024-04-10T10:01:30.006Z,15.90
2024-04-10T10:03:57.122Z,16.36
2024-04-10T10:06:31.551Z,15.76
2024-04-10T10:09:00.222Z,16.70
2024-04-10T10:11:27.179Z,16.88
2024-04-10T10:13:57.765Z,15.80
2024-04-10T10:16:26.405Z,15.25
2024-04-10T10:18:54.776Z,15.68
2024-04-10T10:21:22.828Z,16.03
2024-04-10T10:23:59.121Z,15.17
2024-04-10T10:26:26.123Z,14.58
2024-04-10T10:29:03.491Z,14.93
2024-04-10T10:31:32.089Z,15.78
2024-04-10T10:34:03.055Z,16.67
2024-04-10T10:36:32.350Z,17.36
2024-04-10T10:39:06.328Z,16.70
2024-04-10T10:41:32.915Z,16.08
2024-04-10T10:43:59.751Z,16.92
2024-04-10T10:46:26.381Z,17.64
2024-04-10T10:48:53.004Z,17.81
2024-04-10T10:51:19.629Z,17.02
2024-04-10T10:53:47.050Z,17.76
2024-04-10T10:56:23.663Z,17.69
2024-04-10T10:58:50.248Z,16.96
2024-04-10T11:01:19.132Z,17.28
2024-04-10T11:03:46.028Z,17.66
2024-04-10T11:06:13.612Z,17.49
2024-04-10T11:08:40.661Z,17.70
2024-04-10T11:11:09.031Z,17.73
2024-04-10T11:13:47.264Z,17.48
2024-04-10T11:16:24.830Z,17.82
2024-04-10T11:18:51.457Z,17.82
2024-04-10T11:21:18.038Z,16.94
2024-04-10T11:23:44.659Z,17.69
2024-04-10T11:26:11.235Z,17.26
2024-04-10T11:28:40.407Z,17.37
2024-04-10T11:31:07.989Z,17.62
2024-04-10T11:33:34.791Z,18.33
2024-04-10T11:36:01.578Z,17.54
2024-04-10T11:38:28.229Z,17.56
2024-04-10T11:40:54.930Z,16.86
2024-04-10T11:43:21.453Z,17.14
2024-04-10T11:45:50.573Z,16.75
2024-04-10T11:48:17.261Z,17.49
2024-04-10T11:50:43.888Z,18.12
2024-04-10T11:53:10.559Z,18.57
2024-04-10T11:55:37.088Z,18.83
2024-04-10T11:58:05.215Z,18.71
2024-04-10T12:00:32.440Z,17.50
2024-04-10T12:03:01.778Z,17.86
2024-04-10T12:05:28.614Z,17.72
2024-04-10T12:07:55.335Z,18.06
2024-04-10T12:10:22.248Z,16.88
2024-04-10T12:12:49.223Z,16.61
2024-04-10T12:15:15.897Z,16.73
2024-04-10T12:17:42.579Z,16.56
2024-04-10T12:20:12.004Z,17.30
2024-04-10T12:22:38.634Z,17.93
2024-04-10T12:25:05.593Z,18.34
2024-04-10T12:27:32.353Z,17.51
2024-04-10T12:29:59.236Z,17.64
2024-04-10T12:32:26.352Z,16.93
2024-04-10T12:34:53.200Z,17.89
2024-04-10T12:37:22.424Z,18.68
2024-04-10T12:39:48.961Z,18.54
2024-04-10T12:42:15.656Z,18.94
2024-04-10T12:44:42.296Z,18.67
2024-04-10T12:47:09.217Z,19.09
2024-04-10T12:49:35.832Z,18.93
2024-04-10T12:52:02.424Z,18.82
2024-04-10T12:54:32.562Z,18.98
2024-04-10T12:56:59.312Z,18.46
2024-04-10T12:59:25.997Z,18.64
2024-04-10T13:01:52.624Z,18.46
2024-04-10T13:04:19.399Z,18.20
2024-04-10T13:06:46.207Z,17.62
2024-04-10T13:09:12.737Z,18.75
2024-04-10T13:11:41.961Z,18.55
2024-04-10T13:14:08.571Z,17.94
2024-04-10T13:16:35.116Z,17.83
2024-04-10T13:19:01.751Z,17.23
2024-04-10T13:21:28.338Z,17.07
2024-04-10T13:23:55.020Z,17.18
2024-04-10T13:26:21.683Z,17.71
2024-04-10T13:28:51.041Z,17.81
2024-04-10T13:31:18.751Z,18.32
2024-04-10T13:33:46.878Z,18.17
2024-04-10T13:36:15.136Z,17.90
2024-04-10T13:38:43.596Z,17.72
2024-04-10T13:41:10.958Z,18.18
2024-04-10T13:43:38.682Z,17.83
2024-04-10T13:46:09.141Z,18.17
2024-04-10T13:48:36.155Z,17.96
2024-04-10T13:51:03.271Z,17.46
2024-04-10T13:53:30.019Z,16.88
2024-04-10T13:56:04.372Z,16.61
2024-04-10T13:58:30.915Z,16.45
2024-04-10T14:00:57.559Z,16.90
2024-04-10T14:03:26.928Z,16.90
2024-04-10T14:05:59.855Z,16.54
2024-04-10T14:08:26.476Z,17.26
2024-04-10T14:10:53.082Z,16.99
2024-04-10T14:13:19.618Z,16.84
2024-04-10T14:15:52.730Z,16.66
2024-04-10T14:18:19.443Z,17.03
2024-04-10T14:20:49.075Z,16.97
2024-04-10T14:23:15.700Z,17.39
2024-04-10T14:25:42.243Z,17.68
2024-04-10T14:28:09.415Z,17.53
2024-04-10T14:30:35.959Z,17.00
2024-04-10T14:33:02.718Z,17.56
2024-04-10T14:35:29.536Z,17.04
2024-04-10T14:37:58.672Z,16.84
2024-04-10T14:40:27.173Z,16.51
2024-04-10T14:42:57.255Z,16.41
2024-04-10T14:45:29.691Z,16.50
2024-04-10T14:47:56.369Z,16.26
2024-04-10T14:50:23.127Z,16.45
2024-04-10T14:52:49.679Z,16.75
2024-04-10T14:55:18.822Z,16.47
2024-04-10T14:57:45.344Z,17.16
2024-04-10T15:00:12.305Z,17.21
2024-04-10T15:02:38.917Z,16.76
2024-04-10T15:05:05.969Z,17.18
2024-04-10T15:07:32.566Z,16.92
2024-04-10T15:09:59.962Z,16.33
2024-04-10T15:12:29.117Z,16.54
2024-04-10T15:14:57.443Z,15.90
2024-04-10T15:17:24.017Z,16.51
2024-04-10T15:19:50.576Z,16.35
2024-04-10T15:22:17.137Z,16.09
2024-04-10T15:24:43.668Z,16.20
2024-04-10T15:27:10.258Z,16.20
2024-04-10T15:29:39.453Z,16.17
2024-04-10T15:32:06.129Z,15.77
2024-04-10T15:34:32.844Z,15.75
2024-04-10T15:37:01.478Z,16.21
2024-04-10T15:39:28.312Z,15.99
2024-04-10T15:41:54.874Z,16.15
2024-04-10T15:44:24.666Z,16.45
2024-04-10T15:46:54.040Z,16.12
2024-04-10T15:49:21.004Z,16.29
2024-04-10T15:51:47.605Z,15.84
2024-04-10T15:54:14.245Z,16.42
2024-04-10T15:56:40.887Z,16.45
2024-04-10T15:59:07.606Z,16.86
2024-04-10T16:01:34.132Z,16.98
2024-04-10T16:04:03.525Z,16.52
2024-04-10T16:06:30.228Z,16.78
2024-04-10T16:08:59.847Z,17.18
2024-04-10T16:11:28.134Z,16.35
2024-04-10T16:13:54.756Z,16.90
2024-04-10T16:16:21.709Z,16.68
2024-04-10T16:18:49.611Z,16.55
2024-04-10T16:21:19.027Z,16.46
2024-04-10T16:23:46.851Z,16.63
2024-04-10T16:26:15.205Z,16.23
2024-04-10T16:28:42.289Z,15.91
2024-04-10T16:31:08.864Z,16.05
2024-04-10T16:33:35.966Z,15.80
2024-04-10T16:36:07.057Z,16.08
2024-04-10T16:38:36.671Z,16.21
2024-04-10T16:41:04.136Z,16.31
2024-04-10T16:43:33.938Z,15.73
2024-04-10T16:46:02.671Z,15.64
2024-04-10T16:48:29.857Z,15.65
2024-04-10T16:50:57.591Z,15.50
2024-04-10T16:53:24.442Z,15.18
2024-04-10T16:55:53.604Z,15.62
2024-04-10T16:58:20.166Z,15.33
2024-04-10T17:00:47.275Z,16.11
2024-04-10T17:03:14.243Z,15.75
2024-04-10T17:05:41.231Z,16.08
2024-04-10T17:08:08.836Z,15.66
2024-04-10T17:10:36.583Z,15.47
2024-04-10T17:13:05.803Z,15.81
2024-04-10T17:15:32.364Z,15.37
2024-04-10T17:17:59.156Z,15.29
2024-04-10T17:20:25.748Z,15.32
2024-04-10T17:22:52.280Z,15.50
2024-04-10T17:25:18.804Z,15.34
2024-04-10T17:27:46.530Z,15.40
2024-04-10T17:30:16.103Z,15.65
2024-04-10T17:32:42.875Z,15.11
2024-04-10T17:35:09.523Z,15.06
2024-04-10T17:37:36.087Z,15.20
2024-04-10T17:40:02.839Z,15.27
2024-04-10T17:42:29.404Z,15.27
2024-04-10T17:44:56.028Z,15.37
2024-04-10T17:47:25.340Z,15.11
2024-04-10T17:49:52.051Z,15.04
2024-04-10T17:52:18.592Z,15.25
2024-04-10T17:54:45.125Z,14.50
2024-04-10T17:57:11.728Z,14.92
2024-04-10T17:59:38.451Z,15.05
2024-04-10T18:02:05.024Z,15.29
2024-04-10T18:04:34.472Z,14.78
2024-04-10T18:07:01.082Z,14.97
2024-04-10T18:09:27.625Z,14.44
2024-04-10T18:11:54.394Z,14.74
2024-04-10T18:14:20.999Z,14.99
2024-04-10T18:16:47.563Z,15.01
2024-04-10T18:19:14.405Z,14.81
2024-04-10T18:21:43.713Z,14.67
2024-04-10T18:24:10.352Z,14.56
2024-04-10T18:26:37.046Z,14.61
2024-04-10T18:29:03.622Z,14.88
2024-04-10T18:31:30.173Z,14.41
2024-04-10T18:33:56.771Z,14.82
2024-04-10T18:36:23.388Z,14.76
2024-04-10T18:38:52.499Z,14.81
2024-04-10T18:41:19.298Z,14.60
2024-04-10T18:43:45.882Z,14.66
2024-04-10T18:46:12.425Z,14.46
2024-04-10T18:48:39.791Z,14.68
2024-04-10T18:51:10.871Z,14.22
2024-04-10T18:53:37.804Z,14.45
2024-04-10T18:56:07.527Z,14.41
2024-04-10T18:58:34.106Z,14.32
2024-04-10T19:01:04.712Z,14.30
2024-04-10T19:03:31.907Z,14.65
2024-04-10T19:05:58.667Z,14.22
2024-04-10T19:08:25.987Z,14.28
2024-04-10T19:10:52.969Z,14.11
2024-04-10T19:13:22.137Z,14.04
2024-04-10T19:15:48.960Z,14.45
2024-04-10T19:18:16.170Z,13.96
2024-04-10T19:20:42.902Z,14.14
2024-04-10T19:23:09.536Z,14.07
2024-04-10T19:25:36.120Z,14.23
2024-04-10T19:28:02.791Z,14.13
2024-04-10T19:30:32.010Z,14.08
2024-04-10T19:32:58.658Z,13.76
2024-04-10T19:35:25.310Z,14.09
2024-04-10T19:37:51.870Z,13.86
2024-04-10T19:40:18.475Z,13.90
2024-04-10T19:42:45.134Z,13.81
2024-04-10T19:45:14.316Z,13.68
2024-04-10T19:47:44.176Z,13.70
2024-04-10T19:50:10.787Z,13.53
2024-04-10T19:52:37.336Z,13.46
2024-04-10T19:55:04.425Z,13.43
2024-04-10T19:57:31.078Z,13.58
2024-04-10T19:59:57.805Z,13.29
2024-04-10T20:02:25.384Z,13.74
2024-04-10T20:04:55.008Z,13.56
2024-04-10T20:07:21.721Z,13.50
2024-04-10T20:09:48.318Z,13.41
2024-04-10T20:12:14.993Z,13.63
2024-04-10T20:14:41.662Z,13.39
2024-04-10T20:17:08.347Z,13.23
2024-04-10T20:19:35.031Z,13.11
2024-04-10T20:22:04.757Z,13.17
2024-04-10T20:24:31.633Z,13.15
2024-04-10T20:26:58.386Z,13.40
2024-04-10T20:29:25.204Z,13.46
2024-04-10T20:31:51.947Z,13.49
2024-04-10T20:34:18.777Z,13.10
2024-04-10T20:36:45.384Z,12.45
2024-04-10T20:39:14.962Z,12.84
2024-04-10T20:41:41.723Z,13.19
2024-04-10T20:44:08.472Z,13.20
2024-04-10T20:46:35.054Z,12.48
2024-04-10T20:49:02.006Z,12.33
2024-04-10T20:51:28.837Z,12.79
2024-04-10T20:53:55.718Z,12.27
2024-04-10T20:56:25.062Z,12.46
2024-04-10T20:58:51.778Z,12.77
2024-04-10T21:01:19.978Z,12.55
2024-04-10T21:03:48.666Z,12.99
2024-04-10T21:06:16.991Z,12.58
2024-04-10T21:08:44.615Z,12.45
2024-04-10T21:11:11.464Z,12.38
2024-04-10T21:13:40.639Z,12.64
2024-04-10T21:16:07.674Z,12.59
2024-04-10T21:18:34.322Z,12.57
2024-04-10T21:21:02.281Z,12.58
2024-04-10T21:23:28.980Z,12.56
2024-04-10T21:25:55.610Z,12.12
2024-04-10T21:28:22.175Z,12.22
2024-04-10T21:30:51.420Z,12.01
2024-04-10T21:33:18.053Z,12.24
2024-04-10T21:35:44.669Z,12.28
2024-04-10T21:38:11.380Z,11.41
2024-04-10T21:40:38.364Z,11.99
2024-04-10T21:43:04.937Z,12.06
2024-04-10T21:45:32.359Z,12.10
2024-04-10T21:48:01.822Z,11.85
2024-04-10T21:50:28.715Z,12.11
2024-04-10T21:52:55.365Z,12.22
2024-04-10T21:55:21.953Z,12.10
2024-04-10T21:57:48.548Z,12.26
2024-04-10T22:00:33.164Z,11.96
2024-04-10T22:03:04.759Z,11.86
2024-04-10T22:05:32.020Z,11.80
2024-04-10T22:07:58.806Z,11.69
2024-04-10T22:10:25.402Z,11.64
2024-04-10T22:12:52.080Z,11.80
2024-04-10T22:15:19.850Z,11.91
2024-04-10T22:17:46.762Z,11.70
2024-04-10T22:20:16.275Z,11.65
2024-04-10T22:22:42.835Z,11.67
2024-04-10T22:25:09.425Z,11.34
2024-04-10T22:27:36.103Z,11.67
2024-04-10T22:30:03.002Z,11.52
2024-04-10T22:32:29.910Z,11.21
2024-04-10T22:34:56.611Z,11.36
2024-04-10T22:37:25.761Z,11.46
2024-04-10T22:39:52.329Z,11.48
2024-04-10T22:42:18.935Z,11.36
2024-04-10T22:44:49.010Z,11.47
2024-04-10T22:47:17.356Z,11.54
2024-04-10T22:49:44.112Z,11.46
2024-04-10T22:52:10.737Z,11.34
2024-04-10T22:54:39.861Z,11.43
2024-04-10T22:57:06.557Z,11.37
2024-04-10T22:59:33.239Z,11.24
2024-04-10T23:01:59.841Z,11.31
2024-04-10T23:04:26.427Z,11.34
2024-04-10T23:09:22.658Z,11.44
2024-04-10T23:11:52.032Z,11.21
2024-04-10T23:14:18.767Z,11.15
2024-04-10T23:16:45.366Z,11.28
2024-04-10T23:19:17.065Z,11.22
2024-04-10T23:21:44.579Z,11.01
2024-04-10T23:24:11.136Z,10.88
2024-04-10T23:26:37.795Z,11.11
2024-04-10T23:29:06.984Z,11.23
2024-04-10T23:31:33.611Z,10.84
2024-04-10T23:34:00.714Z,11.01
2024-04-10T23:36:27.433Z,10.88
2024-04-10T23:38:54.008Z,11.04
2024-04-10T23:41:20.664Z,10.77
2024-04-10T23:43:47.642Z,10.67
2024-04-10T23:46:16.798Z,10.77
2024-04-10T23:48:43.604Z,10.36
2024-04-10T23:51:10.547Z,10.24
2024-04-10T23:53:37.108Z,10.23
2024-04-10T23:56:04.663Z,10.58
2024-04-10T23:58:31.222Z,10.38
